• Join FlightAware (Why Join?)
  • Login
  • US Flag 
12:55AM EDT


 

Airport Tracker/Info


-or-


 

Live Flight TrackerFlight Track Log ✈ JIA2377 ✈ 31-Jul-2013 ✈ KCLT - KMYR

Flight Track Log - Related Links

Times and Time Zones

All times are in EDT time to prevent confusion due to time zone crossing. See the JIA2377 flight status page for this flight to view local times or setup timezone preferences in your user account.

Time Position Orientation Groundspeed Altitude Reporting Facility
EDT Latitude Longitude Course Direction KTS MPH feet Rate Location/Type
02:44PM 35.1247 -80.9611 185° South 228 262 4,000  Level Atlanta Center
02:45PM 34.9296 -80.5657 180° South  Level Estimated
02:45PM 35.0711 -80.9858 201° Southwest 263 303 6,300  Level Atlanta Center
02:46PM 34.8346 -80.4385 180° South  Level Estimated
02:46PM 34.9986 -81.0089 195° South 274 315 9,400  Level Atlanta Center
02:47PM 34.7395 -80.3116 195° South  Level Estimated
02:47PM 34.9272 -80.9861 165° South 305 351 11,400  Level Atlanta Center
02:48PM 34.6442 -80.1850 190° South  Level Estimated
02:49PM 34.7617 -80.9114 160° South 317 365 16,000  Level Jacksonville Center
02:50PM 34.6833 -80.8425 144° Southeast 336 387 17,000 480 Climbing Jacksonville Center
02:51PM 34.5947 -80.7739 147° Southeast 373 429 17,000  Level Jacksonville Center
02:52PM 34.5200 -80.6675 130° Southeast 375 432 17,000  Level Jacksonville Center
02:53PM 34.4700 -80.5553 118° Southeast 375 432 17,000  Level Jacksonville Center
02:54PM 34.4200 -80.4536 121° Southeast 369 425 17,000 -360 Level Jacksonville Center
02:55PM 34.3742 -80.3492 118° Southeast 360 414 16,300 -1,260 Descending Jacksonville Center
02:56PM 34.3261 -80.2500 120° Southeast 344 396 14,500 -1,200 Descending Jacksonville Center
02:57PM 34.2806 -80.1608 122° Southeast 335 386 14,000 -300 Descending Jacksonville Center
02:58PM 34.2406 -80.0567 115° Southeast 328 377 14,000 -60 Level Jacksonville Center
02:59PM 34.1947 -79.9603 120° Southeast 322 371 13,900 -60 Descending Jacksonville Center
03:00PM 34.1442 -79.8567 121° Southeast 334 384 13,900 -300 Level Jacksonville Center
03:01PM 34.0936 -79.7531 120° Southeast 346 398 13,300 -1,260 Descending Jacksonville Center
03:02PM 34.0453 -79.6569 121° Southeast 351 404 11,400 -1,200 Descending Jacksonville Center
03:03PM 33.9992 -79.5636 121° Southeast 340 391 10,900 -300 Descending Jacksonville Center
03:04PM 33.9550 -79.4750 121° Southeast 326 375 10,900  Level Jacksonville Center
03:05PM 33.9111 -79.3942 123° Southeast 321 369 10,900 -480 Level Jacksonville Center
03:06PM 33.8814 -79.3053 112° Southeast 297 342 10,000 -1,320 Descending Jacksonville Center
03:07PM 33.8622 -79.2236 106° East 269 310 8,300 -1,800 Descending Jacksonville Center
03:08PM 33.8433 -79.1469 107° East 256 295 6,400 -1,920 Descending Jacksonville Center
03:09PM 33.8244 -79.0728 107° East 241 277 4,500 -1,980 Descending Jacksonville Center
03:10PM 33.8056 -79.0036 108° East 222 255 2,500 -2,040 Descending Jacksonville Center